sensor_id;sensor_type;location;lat;lon;timestamp;P1;durP1;ratioP1;P2;durP2;ratioP2
58260;SDS011;44058;52.898;6.502;2023-03-12T00:00:30;8.90;;;5.93;;
58260;SDS011;44058;52.898;6.502;2023-03-12T00:02:56;9.10;;;6.20;;
58260;SDS011;44058;52.898;6.502;2023-03-12T00:05:22;10.27;;;6.40;;
58260;SDS011;44058;52.898;6.502;2023-03-12T00:07:50;9.37;;;6.40;;
58260;SDS011;44058;52.898;6.502;2023-03-12T00:10:16;9.67;;;5.97;;
58260;SDS011;44058;52.898;6.502;2023-03-12T00:12:42;7.73;;;5.73;;
58260;SDS011;44058;52.898;6.502;2023-03-12T00:15:09;9.50;;;5.70;;
58260;SDS011;44058;52.898;6.502;2023-03-12T00:17:35;7.73;;;5.63;;
58260;SDS011;44058;52.898;6.502;2023-03-12T00:20:02;10.63;;;6.00;;
58260;SDS011;44058;52.898;6.502;2023-03-12T00:22:29;8.27;;;5.67;;
58260;SDS011;44058;52.898;6.502;2023-03-12T00:24:55;12.77;;;6.00;;
58260;SDS011;44058;52.898;6.502;2023-03-12T00:27:22;7.90;;;5.70;;
58260;SDS011;44058;52.898;6.502;2023-03-12T00:29:48;8.23;;;5.20;;
58260;SDS011;44058;52.898;6.502;2023-03-12T00:32:14;7.53;;;5.13;;
58260;SDS011;44058;52.898;6.502;2023-03-12T00:34:41;6.30;;;4.93;;
58260;SDS011;44058;52.898;6.502;2023-03-12T00:37:07;8.00;;;5.23;;
58260;SDS011;44058;52.898;6.502;2023-03-12T00:39:33;9.03;;;5.63;;
58260;SDS011;44058;52.898;6.502;2023-03-12T00:42:00;7.37;;;5.20;;
58260;SDS011;44058;52.898;6.502;2023-03-12T00:44:26;7.20;;;5.23;;
58260;SDS011;44058;52.898;6.502;2023-03-12T00:46:52;7.90;;;5.17;;
58260;SDS011;44058;52.898;6.502;2023-03-12T00:49:18;8.20;;;5.30;;
58260;SDS011;44058;52.898;6.502;2023-03-12T00:51:44;8.20;;;5.20;;
58260;SDS011;44058;52.898;6.502;2023-03-12T00:54:10;6.80;;;4.87;;
58260;SDS011;44058;52.898;6.502;2023-03-12T00:56:37;11.23;;;5.70;;
58260;SDS011;44058;52.898;6.502;2023-03-12T00:59:03;6.97;;;4.80;;
58260;SDS011;44058;52.898;6.502;2023-03-12T01:01:29;7.50;;;4.73;;
58260;SDS011;44058;52.898;6.502;2023-03-12T01:03:55;6.60;;;5.10;;
58260;SDS011;44058;52.898;6.502;2023-03-12T01:06:23;6.70;;;4.67;;
58260;SDS011;44058;52.898;6.502;2023-03-12T01:08:50;7.17;;;5.60;;
58260;SDS011;44058;52.898;6.502;2023-03-12T01:11:17;10.03;;;5.40;;
58260;SDS011;44058;52.898;6.502;2023-03-12T01:13:43;9.00;;;5.63;;
58260;SDS011;44058;52.898;6.502;2023-03-12T01:16:09;10.17;;;6.17;;
58260;SDS011;44058;52.898;6.502;2023-03-12T01:18:36;10.13;;;5.87;;
58260;SDS011;44058;52.898;6.502;2023-03-12T01:21:02;8.87;;;5.80;;
58260;SDS011;44058;52.898;6.502;2023-03-12T01:23:28;10.40;;;5.77;;
58260;SDS011;44058;52.898;6.502;2023-03-12T01:25:54;8.97;;;5.90;;
58260;SDS011;44058;52.898;6.502;2023-03-12T01:28:22;8.03;;;5.70;;
58260;SDS011;44058;52.898;6.502;2023-03-12T01:30:48;8.73;;;5.47;;
58260;SDS011;44058;52.898;6.502;2023-03-12T01:33:15;8.37;;;5.37;;
58260;SDS011;44058;52.898;6.502;2023-03-12T01:35:41;9.17;;;5.27;;
58260;SDS011;44058;52.898;6.502;2023-03-12T01:38:08;8.27;;;4.80;;
58260;SDS011;44058;52.898;6.502;2023-03-12T01:40:37;5.30;;;4.38;;
58260;SDS011;44058;52.898;6.502;2023-03-12T01:43:23;7.33;;;4.63;;
58260;SDS011;44058;52.898;6.502;2023-03-12T01:48:21;7.30;;;4.90;;
58260;SDS011;44058;52.898;6.502;2023-03-12T01:50:48;7.17;;;4.60;;
58260;SDS011;44058;52.898;6.502;2023-03-12T01:53:14;10.07;;;4.70;;
58260;SDS011;44058;52.898;6.502;2023-03-12T01:55:40;9.80;;;4.90;;
58260;SDS011;44058;52.898;6.502;2023-03-12T01:58:07;4.60;;;4.10;;
58260;SDS011;44058;52.898;6.502;2023-03-12T02:00:33;5.73;;;4.10;;
58260;SDS011;44058;52.898;6.502;2023-03-12T02:03:01;8.33;;;4.23;;
58260;SDS011;44058;52.898;6.502;2023-03-12T02:06:13;7.53;;;4.57;;
58260;SDS011;44058;52.898;6.502;2023-03-12T02:08:20;9.80;;;4.67;;
58260;SDS011;44058;52.898;6.502;2023-03-12T02:10:47;7.77;;;4.40;;
58260;SDS011;44058;52.898;6.502;2023-03-12T02:13:14;8.67;;;4.67;;
58260;SDS011;44058;52.898;6.502;2023-03-12T02:15:40;9.80;;;4.50;;
58260;SDS011;44058;52.898;6.502;2023-03-12T02:18:07;5.63;;;3.97;;
58260;SDS011;44058;52.898;6.502;2023-03-12T02:23:17;5.33;;;4.03;;
58260;SDS011;44058;52.898;6.502;2023-03-12T02:25:46;7.70;;;4.27;;
58260;SDS011;44058;52.898;6.502;2023-03-12T02:28:15;5.88;;;4.00;;
58260;SDS011;44058;52.898;6.502;2023-03-12T02:30:43;6.50;;;4.00;;
58260;SDS011;44058;52.898;6.502;2023-03-12T02:33:11;6.30;;;4.22;;
58260;SDS011;44058;52.898;6.502;2023-03-12T02:35:39;7.93;;;3.90;;
58260;SDS011;44058;52.898;6.502;2023-03-12T02:40:50;6.63;;;4.30;;
58260;SDS011;44058;52.898;6.502;2023-03-12T02:43:17;8.53;;;4.30;;
58260;SDS011;44058;52.898;6.502;2023-03-12T02:45:44;7.13;;;4.37;;
58260;SDS011;44058;52.898;6.502;2023-03-12T02:48:10;7.30;;;4.87;;
58260;SDS011;44058;52.898;6.502;2023-03-12T02:50:36;7.83;;;4.60;;
58260;SDS011;44058;52.898;6.502;2023-03-12T02:53:02;8.97;;;4.30;;
58260;SDS011;44058;52.898;6.502;2023-03-12T02:55:29;7.30;;;4.67;;
58260;SDS011;44058;52.898;6.502;2023-03-12T02:57:55;9.77;;;4.77;;
58260;SDS011;44058;52.898;6.502;2023-03-12T03:00:21;6.97;;;5.07;;
58260;SDS011;44058;52.898;6.502;2023-03-12T03:02:48;5.70;;;4.40;;
58260;SDS011;44058;52.898;6.502;2023-03-12T03:05:14;7.93;;;5.23;;
58260;SDS011;44058;52.898;6.502;2023-03-12T03:07:40;7.27;;;4.83;;
58260;SDS011;44058;52.898;6.502;2023-03-12T03:10:06;9.47;;;5.07;;
58260;SDS011;44058;52.898;6.502;2023-03-12T03:12:33;8.80;;;4.50;;
58260;SDS011;44058;52.898;6.502;2023-03-12T03:14:59;9.37;;;4.90;;
58260;SDS011;44058;52.898;6.502;2023-03-12T03:17:26;6.40;;;4.33;;
58260;SDS011;44058;52.898;6.502;2023-03-12T03:19:52;7.47;;;4.47;;
58260;SDS011;44058;52.898;6.502;2023-03-12T03:22:19;7.33;;;4.63;;
58260;SDS011;44058;52.898;6.502;2023-03-12T03:24:45;6.73;;;4.23;;
58260;SDS011;44058;52.898;6.502;2023-03-12T03:27:12;6.13;;;4.03;;
58260;SDS011;44058;52.898;6.502;2023-03-12T03:29:38;8.37;;;4.60;;
58260;SDS011;44058;52.898;6.502;2023-03-12T03:32:04;8.17;;;4.53;;
58260;SDS011;44058;52.898;6.502;2023-03-12T03:34:31;7.30;;;4.20;;
58260;SDS011;44058;52.898;6.502;2023-03-12T03:36:57;8.30;;;3.97;;
58260;SDS011;44058;52.898;6.502;2023-03-12T03:39:23;7.40;;;4.10;;
58260;SDS011;44058;52.898;6.502;2023-03-12T03:41:50;8.23;;;4.10;;
58260;SDS011;44058;52.898;6.502;2023-03-12T03:44:16;5.83;;;4.23;;
58260;SDS011;44058;52.898;6.502;2023-03-12T03:46:42;6.00;;;4.20;;
58260;SDS011;44058;52.898;6.502;2023-03-12T03:49:09;6.77;;;4.40;;
58260;SDS011;44058;52.898;6.502;2023-03-12T03:51:35;7.13;;;4.53;;
58260;SDS011;44058;52.898;6.502;2023-03-12T03:54:01;6.60;;;3.97;;
58260;SDS011;44058;52.898;6.502;2023-03-12T03:56:27;6.87;;;4.30;;
58260;SDS011;44058;52.898;6.502;2023-03-12T03:58:53;5.90;;;4.37;;
58260;SDS011;44058;52.898;6.502;2023-03-12T04:01:20;8.70;;;4.70;;
58260;SDS011;44058;52.898;6.502;2023-03-12T04:03:46;6.73;;;4.00;;
58260;SDS011;44058;52.898;6.502;2023-03-12T04:06:12;7.30;;;4.20;;
58260;SDS011;44058;52.898;6.502;2023-03-12T04:08:38;9.03;;;4.77;;
58260;SDS011;44058;52.898;6.502;2023-03-12T04:11:05;6.37;;;4.20;;
58260;SDS011;44058;52.898;6.502;2023-03-12T04:13:32;8.07;;;4.03;;
58260;SDS011;44058;52.898;6.502;2023-03-12T04:15:58;8.07;;;4.27;;
58260;SDS011;44058;52.898;6.502;2023-03-12T04:18:24;8.13;;;4.10;;
58260;SDS011;44058;52.898;6.502;2023-03-12T04:20:50;9.33;;;4.47;;
58260;SDS011;44058;52.898;6.502;2023-03-12T04:23:17;5.97;;;3.87;;
58260;SDS011;44058;52.898;6.502;2023-03-12T04:25:43;8.33;;;4.93;;
58260;SDS011;44058;52.898;6.502;2023-03-12T04:28:09;7.17;;;3.80;;
58260;SDS011;44058;52.898;6.502;2023-03-12T04:30:35;7.70;;;4.37;;
58260;SDS011;44058;52.898;6.502;2023-03-12T04:33:03;7.47;;;4.30;;
58260;SDS011;44058;52.898;6.502;2023-03-12T04:35:29;5.50;;;4.57;;
58260;SDS011;44058;52.898;6.502;2023-03-12T04:37:55;8.13;;;4.20;;
58260;SDS011;44058;52.898;6.502;2023-03-12T04:40:21;8.07;;;5.10;;
58260;SDS011;44058;52.898;6.502;2023-03-12T04:42:47;5.60;;;4.10;;
58260;SDS011;44058;52.898;6.502;2023-03-12T04:45:14;6.30;;;4.00;;
58260;SDS011;44058;52.898;6.502;2023-03-12T04:47:40;5.77;;;4.07;;
58260;SDS011;44058;52.898;6.502;2023-03-12T04:50:06;7.73;;;4.40;;
58260;SDS011;44058;52.898;6.502;2023-03-12T04:52:32;7.17;;;4.10;;
58260;SDS011;44058;52.898;6.502;2023-03-12T04:54:58;8.83;;;4.37;;
58260;SDS011;44058;52.898;6.502;2023-03-12T04:57:24;6.83;;;4.23;;
58260;SDS011;44058;52.898;6.502;2023-03-12T04:59:51;6.97;;;4.30;;
58260;SDS011;44058;52.898;6.502;2023-03-12T05:02:18;7.83;;;4.07;;
58260;SDS011;44058;52.898;6.502;2023-03-12T05:04:44;8.33;;;4.70;;
58260;SDS011;44058;52.898;6.502;2023-03-12T05:07:10;5.13;;;4.27;;
58260;SDS011;44058;52.898;6.502;2023-03-12T05:09:36;7.90;;;4.60;;
58260;SDS011;44058;52.898;6.502;2023-03-12T05:12:02;6.93;;;4.70;;
58260;SDS011;44058;52.898;6.502;2023-03-12T05:14:28;7.93;;;4.37;;
58260;SDS011;44058;52.898;6.502;2023-03-12T05:16:54;6.23;;;4.40;;
58260;SDS011;44058;52.898;6.502;2023-03-12T05:19:21;6.07;;;4.23;;
58260;SDS011;44058;52.898;6.502;2023-03-12T05:21:47;8.93;;;4.60;;
58260;SDS011;44058;52.898;6.502;2023-03-12T05:24:14;7.53;;;4.50;;
58260;SDS011;44058;52.898;6.502;2023-03-12T05:26:41;5.80;;;4.37;;
58260;SDS011;44058;52.898;6.502;2023-03-12T05:29:07;7.33;;;4.53;;
58260;SDS011;44058;52.898;6.502;2023-03-12T05:31:33;7.73;;;4.80;;
58260;SDS011;44058;52.898;6.502;2023-03-12T05:34:03;6.47;;;4.07;;
58260;SDS011;44058;52.898;6.502;2023-03-12T05:36:29;8.98;;;4.38;;
58260;SDS011;44058;52.898;6.502;2023-03-12T05:38:55;8.60;;;4.67;;
58260;SDS011;44058;52.898;6.502;2023-03-12T05:41:23;11.67;;;4.30;;
58260;SDS011;44058;52.898;6.502;2023-03-12T05:43:50;5.83;;;4.20;;
58260;SDS011;44058;52.898;6.502;2023-03-12T05:46:17;6.67;;;4.20;;
58260;SDS011;44058;52.898;6.502;2023-03-12T05:48:43;7.83;;;4.40;;
58260;SDS011;44058;52.898;6.502;2023-03-12T05:51:09;6.87;;;4.90;;
58260;SDS011;44058;52.898;6.502;2023-03-12T05:53:35;7.30;;;4.70;;
58260;SDS011;44058;52.898;6.502;2023-03-12T05:56:02;6.80;;;4.67;;
58260;SDS011;44058;52.898;6.502;2023-03-12T05:58:29;7.90;;;4.57;;
58260;SDS011;44058;52.898;6.502;2023-03-12T06:00:55;6.97;;;4.80;;
58260;SDS011;44058;52.898;6.502;2023-03-12T06:03:22;8.13;;;4.60;;
58260;SDS011;44058;52.898;6.502;2023-03-12T06:05:48;7.40;;;4.90;;
58260;SDS011;44058;52.898;6.502;2023-03-12T06:08:14;8.00;;;4.43;;
58260;SDS011;44058;52.898;6.502;2023-03-12T06:10:40;8.47;;;5.50;;
58260;SDS011;44058;52.898;6.502;2023-03-12T06:13:06;10.37;;;5.27;;
58260;SDS011;44058;52.898;6.502;2023-03-12T06:15:33;8.70;;;5.00;;
58260;SDS011;44058;52.898;6.502;2023-03-12T06:17:59;8.90;;;4.57;;
58260;SDS011;44058;52.898;6.502;2023-03-12T06:20:25;9.57;;;5.60;;
58260;SDS011;44058;52.898;6.502;2023-03-12T06:22:51;7.57;;;4.70;;
58260;SDS011;44058;52.898;6.502;2023-03-12T06:25:17;8.00;;;4.63;;
58260;SDS011;44058;52.898;6.502;2023-03-12T06:27:43;7.30;;;4.73;;
58260;SDS011;44058;52.898;6.502;2023-03-12T06:30:09;8.77;;;5.30;;
58260;SDS011;44058;52.898;6.502;2023-03-12T06:32:36;9.30;;;5.10;;
58260;SDS011;44058;52.898;6.502;2023-03-12T06:35:02;11.53;;;5.00;;
58260;SDS011;44058;52.898;6.502;2023-03-12T06:37:29;9.03;;;5.33;;
58260;SDS011;44058;52.898;6.502;2023-03-12T06:39:55;7.73;;;5.10;;
58260;SDS011;44058;52.898;6.502;2023-03-12T06:42:21;8.93;;;5.07;;
58260;SDS011;44058;52.898;6.502;2023-03-12T06:44:48;8.70;;;4.93;;
58260;SDS011;44058;52.898;6.502;2023-03-12T06:47:15;8.63;;;4.97;;
58260;SDS011;44058;52.898;6.502;2023-03-12T06:49:41;7.43;;;5.20;;
58260;SDS011;44058;52.898;6.502;2023-03-12T06:52:07;6.53;;;4.80;;
58260;SDS011;44058;52.898;6.502;2023-03-12T06:54:33;10.03;;;4.60;;
58260;SDS011;44058;52.898;6.502;2023-03-12T06:56:59;9.37;;;5.30;;
58260;SDS011;44058;52.898;6.502;2023-03-12T06:59:25;9.13;;;5.23;;
58260;SDS011;44058;52.898;6.502;2023-03-12T07:01:52;7.87;;;5.00;;
58260;SDS011;44058;52.898;6.502;2023-03-12T07:04:19;9.40;;;5.63;;
58260;SDS011;44058;52.898;6.502;2023-03-12T07:06:45;8.57;;;5.50;;
58260;SDS011;44058;52.898;6.502;2023-03-12T07:09:18;9.13;;;5.70;;
58260;SDS011;44058;52.898;6.502;2023-03-12T07:11:45;9.07;;;5.80;;
58260;SDS011;44058;52.898;6.502;2023-03-12T07:14:11;10.93;;;6.10;;
58260;SDS011;44058;52.898;6.502;2023-03-12T07:16:37;10.40;;;5.67;;
58260;SDS011;44058;52.898;6.502;2023-03-12T07:19:03;12.07;;;6.53;;
58260;SDS011;44058;52.898;6.502;2023-03-12T07:21:29;10.17;;;6.07;;
58260;SDS011;44058;52.898;6.502;2023-03-12T07:23:56;10.50;;;6.07;;
58260;SDS011;44058;52.898;6.502;2023-03-12T07:26:22;9.73;;;6.20;;
58260;SDS011;44058;52.898;6.502;2023-03-12T07:28:48;9.67;;;6.43;;
58260;SDS011;44058;52.898;6.502;2023-03-12T07:31:14;11.30;;;7.10;;
58260;SDS011;44058;52.898;6.502;2023-03-12T07:33:40;9.87;;;6.70;;
58260;SDS011;44058;52.898;6.502;2023-03-12T07:36:06;9.33;;;6.03;;
58260;SDS011;44058;52.898;6.502;2023-03-12T07:38:33;10.90;;;6.27;;
58260;SDS011;44058;52.898;6.502;2023-03-12T07:40:59;8.80;;;6.23;;
58260;SDS011;44058;52.898;6.502;2023-03-12T07:43:25;9.37;;;6.53;;
58260;SDS011;44058;52.898;6.502;2023-03-12T07:45:51;9.73;;;6.87;;
58260;SDS011;44058;52.898;6.502;2023-03-12T07:48:17;8.40;;;6.70;;
58260;SDS011;44058;52.898;6.502;2023-03-12T07:50:44;10.63;;;6.80;;
58260;SDS011;44058;52.898;6.502;2023-03-12T07:53:10;9.27;;;6.43;;
58260;SDS011;44058;52.898;6.502;2023-03-12T07:55:36;7.63;;;6.27;;
58260;SDS011;44058;52.898;6.502;2023-03-12T07:58:02;10.33;;;6.03;;
58260;SDS011;44058;52.898;6.502;2023-03-12T08:00:29;9.53;;;5.90;;
58260;SDS011;44058;52.898;6.502;2023-03-12T08:02:55;9.53;;;6.03;;
58260;SDS011;44058;52.898;6.502;2023-03-12T08:05:22;8.60;;;6.97;;
58260;SDS011;44058;52.898;6.502;2023-03-12T08:07:52;9.00;;;6.40;;
58260;SDS011;44058;52.898;6.502;2023-03-12T08:10:19;8.30;;;6.25;;
58260;SDS011;44058;52.898;6.502;2023-03-12T08:12:45;8.53;;;6.40;;
58260;SDS011;44058;52.898;6.502;2023-03-12T08:15:11;11.17;;;6.63;;
58260;SDS011;44058;52.898;6.502;2023-03-12T08:17:38;10.17;;;6.37;;
58260;SDS011;44058;52.898;6.502;2023-03-12T08:20:05;10.37;;;6.27;;
58260;SDS011;44058;52.898;6.502;2023-03-12T08:22:35;9.10;;;6.10;;
58260;SDS011;44058;52.898;6.502;2023-03-12T08:25:01;8.97;;;6.27;;
58260;SDS011;44058;52.898;6.502;2023-03-12T08:27:27;7.83;;;6.20;;
58260;SDS011;44058;52.898;6.502;2023-03-12T08:29:54;9.33;;;6.13;;
58260;SDS011;44058;52.898;6.502;2023-03-12T08:32:20;8.07;;;5.90;;
58260;SDS011;44058;52.898;6.502;2023-03-12T08:34:46;9.60;;;6.17;;
58260;SDS011;44058;52.898;6.502;2023-03-12T08:37:12;11.60;;;6.10;;
58260;SDS011;44058;52.898;6.502;2023-03-12T08:39:38;10.37;;;6.20;;
58260;SDS011;44058;52.898;6.502;2023-03-12T08:42:04;8.43;;;5.70;;
58260;SDS011;44058;52.898;6.502;2023-03-12T08:44:32;8.43;;;5.97;;
58260;SDS011;44058;52.898;6.502;2023-03-12T08:46:58;11.07;;;5.93;;
58260;SDS011;44058;52.898;6.502;2023-03-12T08:49:24;8.27;;;5.57;;
58260;SDS011;44058;52.898;6.502;2023-03-12T08:51:50;10.43;;;5.80;;
58260;SDS011;44058;52.898;6.502;2023-03-12T08:54:17;9.30;;;5.30;;
58260;SDS011;44058;52.898;6.502;2023-03-12T08:56:43;6.30;;;5.20;;
58260;SDS011;44058;52.898;6.502;2023-03-12T08:59:11;8.33;;;6.00;;
58260;SDS011;44058;52.898;6.502;2023-03-12T09:01:37;10.67;;;6.60;;
58260;SDS011;44058;52.898;6.502;2023-03-12T09:04:04;8.20;;;5.63;;
58260;SDS011;44058;52.898;6.502;2023-03-12T09:06:31;9.20;;;5.93;;
58260;SDS011;44058;52.898;6.502;2023-03-12T09:08:59;7.93;;;5.60;;
58260;SDS011;44058;52.898;6.502;2023-03-12T09:11:29;9.83;;;6.50;;
58260;SDS011;44058;52.898;6.502;2023-03-12T09:13:55;8.37;;;6.20;;
58260;SDS011;44058;52.898;6.502;2023-03-12T09:16:21;8.93;;;6.37;;
58260;SDS011;44058;52.898;6.502;2023-03-12T09:18:48;9.30;;;6.10;;
58260;SDS011;44058;52.898;6.502;2023-03-12T09:21:14;10.43;;;6.80;;
58260;SDS011;44058;52.898;6.502;2023-03-12T09:23:40;9.33;;;6.13;;
58260;SDS011;44058;52.898;6.502;2023-03-12T09:26:10;11.17;;;6.63;;
58260;SDS011;44058;52.898;6.502;2023-03-12T09:28:36;10.97;;;5.63;;
58260;SDS011;44058;52.898;6.502;2023-03-12T09:31:03;8.07;;;5.27;;
58260;SDS011;44058;52.898;6.502;2023-03-12T09:33:29;8.90;;;5.70;;
58260;SDS011;44058;52.898;6.502;2023-03-12T09:35:56;10.20;;;6.60;;
58260;SDS011;44058;52.898;6.502;2023-03-12T09:38:22;11.80;;;6.90;;
58260;SDS011;44058;52.898;6.502;2023-03-12T09:40:48;10.50;;;7.70;;
58260;SDS011;44058;52.898;6.502;2023-03-12T09:43:25;9.43;;;7.10;;
58260;SDS011;44058;52.898;6.502;2023-03-12T09:45:54;11.45;;;7.72;;
58260;SDS011;44058;52.898;6.502;2023-03-12T09:48:27;12.10;;;7.40;;
58260;SDS011;44058;52.898;6.502;2023-03-12T09:50:54;11.77;;;8.00;;
58260;SDS011;44058;52.898;6.502;2023-03-12T09:55:59;12.83;;;7.50;;
58260;SDS011;44058;52.898;6.502;2023-03-12T09:58:28;11.50;;;7.63;;
58260;SDS011;44058;52.898;6.502;2023-03-12T10:06:28;11.83;;;8.57;;
58260;SDS011;44058;52.898;6.502;2023-03-12T10:11:31;9.20;;;8.00;;
58260;SDS011;44058;52.898;6.502;2023-03-12T10:19:18;9.57;;;7.57;;
58260;SDS011;44058;52.898;6.502;2023-03-12T10:21:51;11.67;;;8.20;;
58260;SDS011;44058;52.898;6.502;2023-03-12T10:24:29;9.90;;;7.73;;
58260;SDS011;44058;52.898;6.502;2023-03-12T10:26:58;11.63;;;8.00;;
58260;SDS011;44058;52.898;6.502;2023-03-12T10:29:29;10.57;;;8.33;;
58260;SDS011;44058;52.898;6.502;2023-03-12T10:32:15;11.40;;;9.20;;
58260;SDS011;44058;52.898;6.502;2023-03-12T10:37:29;10.37;;;7.77;;
58260;SDS011;44058;52.898;6.502;2023-03-12T10:39:56;15.83;;;8.63;;
58260;SDS011;44058;52.898;6.502;2023-03-12T10:42:28;13.70;;;9.23;;
58260;SDS011;44058;52.898;6.502;2023-03-12T10:44:58;13.77;;;9.10;;
58260;SDS011;44058;52.898;6.502;2023-03-12T10:47:38;10.90;;;8.80;;
58260;SDS011;44058;52.898;6.502;2023-03-12T10:50:12;13.70;;;8.83;;
58260;SDS011;44058;52.898;6.502;2023-03-12T10:52:38;14.43;;;9.53;;
58260;SDS011;44058;52.898;6.502;2023-03-12T10:55:09;11.50;;;8.73;;
58260;SDS011;44058;52.898;6.502;2023-03-12T10:57:40;13.47;;;9.00;;
58260;SDS011;44058;52.898;6.502;2023-03-12T11:00:07;12.40;;;8.07;;
58260;SDS011;44058;52.898;6.502;2023-03-12T11:02:39;13.63;;;8.97;;
58260;SDS011;44058;52.898;6.502;2023-03-12T11:05:28;11.37;;;8.27;;
58260;SDS011;44058;52.898;6.502;2023-03-12T11:07:52;13.43;;;9.60;;
58260;SDS011;44058;52.898;6.502;2023-03-12T11:10:20;14.03;;;9.97;;
58260;SDS011;44058;52.898;6.502;2023-03-12T11:13:33;11.33;;;7.90;;
58260;SDS011;44058;52.898;6.502;2023-03-12T11:15:40;13.97;;;9.07;;
58260;SDS011;44058;52.898;6.502;2023-03-12T11:20:50;14.05;;;9.23;;
58260;SDS011;44058;52.898;6.502;2023-03-12T11:23:21;17.80;;;11.18;;
58260;SDS011;44058;52.898;6.502;2023-03-12T11:25:52;17.67;;;10.93;;
58260;SDS011;44058;52.898;6.502;2023-03-12T11:28:20;15.17;;;10.30;;
58260;SDS011;44058;52.898;6.502;2023-03-12T11:30:47;15.52;;;10.07;;
58260;SDS011;44058;52.898;6.502;2023-03-12T11:33:14;13.17;;;9.83;;
58260;SDS011;44058;52.898;6.502;2023-03-12T11:38:38;14.23;;;10.57;;
58260;SDS011;44058;52.898;6.502;2023-03-12T11:41:23;18.85;;;11.50;;
58260;SDS011;44058;52.898;6.502;2023-03-12T11:49:26;16.38;;;11.15;;
58260;SDS011;44058;52.898;6.502;2023-03-12T11:51:56;16.40;;;11.25;;
58260;SDS011;44058;52.898;6.502;2023-03-12T12:02:44;15.18;;;11.13;;
58260;SDS011;44058;52.898;6.502;2023-03-12T12:05:25;18.08;;;11.73;;
58260;SDS011;44058;52.898;6.502;2023-03-12T12:07:59;14.00;;;10.38;;
58260;SDS011;44058;52.898;6.502;2023-03-12T12:15:50;20.42;;;12.07;;
58260;SDS011;44058;52.898;6.502;2023-03-12T12:23:38;23.80;;;13.15;;
58260;SDS011;44058;52.898;6.502;2023-03-12T12:26:18;21.02;;;12.32;;
58260;SDS011;44058;52.898;6.502;2023-03-12T12:36:26;21.83;;;13.45;;
58260;SDS011;44058;52.898;6.502;2023-03-12T12:38:55;16.97;;;12.27;;
58260;SDS011;44058;52.898;6.502;2023-03-12T12:41:26;18.15;;;11.52;;
58260;SDS011;44058;52.898;6.502;2023-03-12T12:43:57;18.33;;;11.77;;
58260;SDS011;44058;52.898;6.502;2023-03-12T12:46:29;22.67;;;12.80;;
58260;SDS011;44058;52.898;6.502;2023-03-12T12:51:28;20.33;;;11.85;;
58260;SDS011;44058;52.898;6.502;2023-03-12T12:54:18;17.73;;;11.75;;
58260;SDS011;44058;52.898;6.502;2023-03-12T12:59:23;18.05;;;10.77;;
58260;SDS011;44058;52.898;6.502;2023-03-12T13:01:51;16.23;;;11.73;;
58260;SDS011;44058;52.898;6.502;2023-03-12T13:04:25;17.13;;;11.43;;
58260;SDS011;44058;52.898;6.502;2023-03-12T13:07:00;18.50;;;11.70;;
58260;SDS011;44058;52.898;6.502;2023-03-12T13:09:42;18.92;;;11.82;;
58260;SDS011;44058;52.898;6.502;2023-03-12T13:12:13;18.52;;;11.45;;
58260;SDS011;44058;52.898;6.502;2023-03-12T13:14:41;19.63;;;11.30;;
58260;SDS011;44058;52.898;6.502;2023-03-12T13:19:56;19.92;;;12.80;;
58260;SDS011;44058;52.898;6.502;2023-03-12T13:22:25;18.92;;;12.88;;
58260;SDS011;44058;52.898;6.502;2023-03-12T13:27:40;22.80;;;12.98;;
58260;SDS011;44058;52.898;6.502;2023-03-12T13:43:10;29.02;;;13.40;;
58260;SDS011;44058;52.898;6.502;2023-03-12T13:45:41;29.70;;;12.15;;
58260;SDS011;44058;52.898;6.502;2023-03-12T13:48:19;29.80;;;12.30;;
58260;SDS011;44058;52.898;6.502;2023-03-12T13:50:50;30.25;;;11.32;;
58260;SDS011;44058;52.898;6.502;2023-03-12T13:53:36;32.80;;;12.30;;
58260;SDS011;44058;52.898;6.502;2023-03-12T13:56:03;31.48;;;10.02;;
58260;SDS011;44058;52.898;6.502;2023-03-12T13:58:30;32.92;;;10.63;;
58260;SDS011;44058;52.898;6.502;2023-03-12T14:01:04;32.90;;;10.70;;
58260;SDS011;44058;52.898;6.502;2023-03-12T14:03:41;36.67;;;10.80;;
58260;SDS011;44058;52.898;6.502;2023-03-12T14:06:10;34.17;;;9.43;;
58260;SDS011;44058;52.898;6.502;2023-03-12T14:16:29;30.17;;;8.98;;
58260;SDS011;44058;52.898;6.502;2023-03-12T14:18:57;31.35;;;8.65;;
58260;SDS011;44058;52.898;6.502;2023-03-12T14:21:25;29.52;;;8.85;;
58260;SDS011;44058;52.898;6.502;2023-03-12T14:23:55;27.25;;;7.80;;
58260;SDS011;44058;52.898;6.502;2023-03-12T14:26:23;29.45;;;7.97;;
58260;SDS011;44058;52.898;6.502;2023-03-12T14:28:53;30.42;;;8.52;;
58260;SDS011;44058;52.898;6.502;2023-03-12T14:31:20;37.28;;;9.68;;
58260;SDS011;44058;52.898;6.502;2023-03-12T14:34:07;26.98;;;7.30;;
58260;SDS011;44058;52.898;6.502;2023-03-12T14:36:37;33.45;;;6.90;;
58260;SDS011;44058;52.898;6.502;2023-03-12T14:42:00;35.80;;;7.20;;
58260;SDS011;44058;52.898;6.502;2023-03-12T14:44:29;26.75;;;6.20;;
58260;SDS011;44058;52.898;6.502;2023-03-12T14:47:02;33.30;;;7.72;;
58260;SDS011;44058;52.898;6.502;2023-03-12T14:49:29;34.58;;;7.43;;
58260;SDS011;44058;52.898;6.502;2023-03-12T14:51:55;26.85;;;6.57;;
58260;SDS011;44058;52.898;6.502;2023-03-12T14:54:23;25.70;;;5.38;;
58260;SDS011;44058;52.898;6.502;2023-03-12T14:56:49;31.90;;;6.43;;
58260;SDS011;44058;52.898;6.502;2023-03-12T14:59:20;31.50;;;7.47;;
58260;SDS011;44058;52.898;6.502;2023-03-12T15:01:47;29.25;;;6.60;;
58260;SDS011;44058;52.898;6.502;2023-03-12T15:04:14;37.00;;;6.43;;
58260;SDS011;44058;52.898;6.502;2023-03-12T15:06:43;27.85;;;6.47;;
58260;SDS011;44058;52.898;6.502;2023-03-12T15:09:19;28.83;;;6.55;;
58260;SDS011;44058;52.898;6.502;2023-03-12T15:12:05;25.80;;;6.40;;
58260;SDS011;44058;52.898;6.502;2023-03-12T15:14:37;31.70;;;6.47;;
58260;SDS011;44058;52.898;6.502;2023-03-12T15:17:05;27.30;;;6.28;;
58260;SDS011;44058;52.898;6.502;2023-03-12T15:19:32;27.80;;;5.90;;
58260;SDS011;44058;52.898;6.502;2023-03-12T15:22:00;33.03;;;6.78;;
58260;SDS011;44058;52.898;6.502;2023-03-12T15:24:27;29.58;;;6.25;;
58260;SDS011;44058;52.898;6.502;2023-03-12T15:26:53;38.70;;;7.10;;
58260;SDS011;44058;52.898;6.502;2023-03-12T15:29:23;40.75;;;7.53;;
58260;SDS011;44058;52.898;6.502;2023-03-12T15:31:56;32.25;;;6.40;;
58260;SDS011;44058;52.898;6.502;2023-03-12T15:34:32;31.48;;;6.60;;
58260;SDS011;44058;52.898;6.502;2023-03-12T15:37:00;31.95;;;5.88;;
58260;SDS011;44058;52.898;6.502;2023-03-12T15:39:28;35.00;;;6.57;;
58260;SDS011;44058;52.898;6.502;2023-03-12T15:41:58;28.58;;;6.88;;
58260;SDS011;44058;52.898;6.502;2023-03-12T15:44:26;25.20;;;6.07;;
58260;SDS011;44058;52.898;6.502;2023-03-12T15:47:01;34.70;;;6.22;;
58260;SDS011;44058;52.898;6.502;2023-03-12T15:49:31;32.03;;;7.40;;
58260;SDS011;44058;52.898;6.502;2023-03-12T15:54:58;33.33;;;6.50;;
58260;SDS011;44058;52.898;6.502;2023-03-12T15:57:24;34.47;;;7.40;;
58260;SDS011;44058;52.898;6.502;2023-03-12T16:02:37;31.17;;;6.22;;
58260;SDS011;44058;52.898;6.502;2023-03-12T16:05:04;29.95;;;6.30;;
58260;SDS011;44058;52.898;6.502;2023-03-12T16:07:30;30.63;;;5.57;;
58260;SDS011;44058;52.898;6.502;2023-03-12T16:09:57;31.90;;;5.50;;
58260;SDS011;44058;52.898;6.502;2023-03-12T16:12:23;40.55;;;6.85;;
58260;SDS011;44058;52.898;6.502;2023-03-12T16:14:50;32.88;;;6.38;;
58260;SDS011;44058;52.898;6.502;2023-03-12T16:17:16;27.92;;;7.10;;
58260;SDS011;44058;52.898;6.502;2023-03-12T16:19:43;36.45;;;6.70;;
58260;SDS011;44058;52.898;6.502;2023-03-12T16:22:09;34.85;;;6.22;;
58260;SDS011;44058;52.898;6.502;2023-03-12T16:24:35;33.75;;;6.53;;
58260;SDS011;44058;52.898;6.502;2023-03-12T16:27:01;33.58;;;6.45;;
58260;SDS011;44058;52.898;6.502;2023-03-12T16:29:32;26.85;;;5.68;;